Time;durP1;ratioP1;P1;durP2;ratioP2;P2;SDS_P1;SDS_P2;PMS_P1;PMS_P2;Temp;Humidity;BMP_temperature;BMP_pressure;BME280_temperature;BME280_humidity;BME280_pressure;Samples;Min_cycle;Max_cycle;Signal;HPM_P1;HPM_P2
2021/12/03 00:00:30;;;;;;;13.40;7.13;;;0.00;99.90;;;;;;5071461;28;20205;-76
2021/12/03 00:02:57;;;;;;;13.17;7.00;;;0.00;99.90;;;;;;5061278;28;20208;-76
2021/12/03 00:05:28;;;;;;;14.47;7.03;;;0.00;99.90;;;;;;5073089;28;20195;-76
2021/12/03 00:07:59;;;;;;;15.73;7.73;;;0.00;99.90;;;;;;5089053;28;20206;-76
2021/12/03 00:10:30;;;;;;;15.67;8.03;;;0.00;99.90;;;;;;5074093;28;20639;-76
2021/12/03 00:12:58;;;;;;;14.77;7.50;;;0.10;99.90;;;;;;5073379;28;20589;-76
2021/12/03 00:15:28;;;;;;;15.60;7.87;;;0.10;99.90;;;;;;5072634;28;20641;-75
2021/12/03 00:17:56;;;;;;;17.63;8.33;;;0.00;99.90;;;;;;5072744;28;20199;-75
2021/12/03 00:20:27;;;;;;;17.07;8.50;;;0.00;99.90;;;;;;5064777;28;20186;-76
2021/12/03 00:22:58;;;;;;;17.30;8.53;;;-0.10;99.90;;;;;;5085903;28;20205;-76
2021/12/03 00:25:26;;;;;;;14.00;7.73;;;-0.10;99.90;;;;;;5071078;28;20546;-76
2021/12/03 00:27:55;;;;;;;16.27;8.13;;;-0.20;99.90;;;;;;5072880;28;20584;-76
2021/12/03 00:30:22;;;;;;;18.03;8.73;;;-0.30;99.90;;;;;;5072365;28;20306;-75
2021/12/03 00:32:50;;;;;;;18.60;7.97;;;-0.30;99.90;;;;;;5083690;28;20202;-76
2021/12/03 00:35:19;;;;;;;18.30;9.07;;;-0.20;99.90;;;;;;5073834;28;20202;-76
2021/12/03 00:37:48;;;;;;;18.00;8.63;;;-0.30;99.90;;;;;;5073153;28;20212;-75
2021/12/03 00:40:20;;;;;;;17.93;8.83;;;-0.30;99.90;;;;;;5071160;28;20198;-76
2021/12/03 00:42:47;;;;;;;18.40;8.53;;;-0.20;99.90;;;;;;5064619;28;20205;-75
2021/12/03 00:45:15;;;;;;;18.23;8.47;;;-0.20;99.90;;;;;;5074188;28;20860;-76
2021/12/03 00:47:43;;;;;;;20.50;9.27;;;-0.20;99.90;;;;;;5085116;28;20202;-76
2021/12/03 00:50:14;;;;;;;20.37;9.30;;;-0.20;99.90;;;;;;5093722;28;20222;-76
2021/12/03 00:52:41;;;;;;;19.73;8.90;;;-0.30;99.90;;;;;;5074675;28;20206;-76
2021/12/03 00:55:11;;;;;;;19.93;9.27;;;-0.30;99.90;;;;;;5071485;28;20205;-76
2021/12/03 00:57:39;;;;;;;20.57;9.50;;;-0.20;99.90;;;;;;5072257;28;20202;-75
2021/12/03 01:00:11;;;;;;;19.27;8.93;;;-0.20;99.90;;;;;;5072659;28;20202;-76
2021/12/03 01:02:39;;;;;;;20.57;9.50;;;-0.20;99.90;;;;;;5071906;28;20202;-75
2021/12/03 01:05:07;;;;;;;21.13;9.50;;;-0.20;99.90;;;;;;5072874;28;20680;-76
2021/12/03 01:07:33;;;;;;;17.57;7.93;;;-0.10;99.90;;;;;;5073330;28;20219;-77
2021/12/03 01:10:01;;;;;;;20.63;9.40;;;-0.10;99.90;;;;;;5074043;28;20222;-77
2021/12/03 01:12:30;;;;;;;25.60;10.40;;;-0.10;99.90;;;;;;5074343;28;20534;-76
2021/12/03 01:14:56;;;;;;;19.23;9.00;;;0.00;99.90;;;;;;5074436;28;20206;-77
2021/12/03 01:17:24;;;;;;;19.43;9.27;;;-0.10;99.90;;;;;;5074045;28;20208;-76
2021/12/03 01:19:50;;;;;;;18.57;8.63;;;0.00;99.90;;;;;;5073930;28;20194;-77
2021/12/03 01:22:17;;;;;;;23.07;10.03;;;-0.10;99.90;;;;;;5073539;28;20210;-77
2021/12/03 01:24:45;;;;;;;23.30;9.03;;;-0.10;99.90;;;;;;5073784;28;20202;-77
2021/12/03 01:27:12;;;;;;;21.40;9.43;;;-0.10;99.90;;;;;;5072776;28;20212;-77
2021/12/03 01:29:40;;;;;;;20.23;8.77;;;0.00;99.90;;;;;;5072902;28;20228;-77
2021/12/03 01:32:07;;;;;;;22.50;9.63;;;-0.10;99.90;;;;;;5073713;28;20212;-77
2021/12/03 01:34:34;;;;;;;19.90;8.90;;;-0.10;99.90;;;;;;5073537;28;20214;-77
2021/12/03 01:37:01;;;;;;;20.57;8.67;;;-0.10;99.90;;;;;;5073126;28;20209;-77
2021/12/03 01:39:28;;;;;;;20.10;9.07;;;-0.10;99.90;;;;;;5073401;28;20280;-76
2021/12/03 01:41:55;;;;;;;21.73;8.33;;;-0.20;99.90;;;;;;5072707;28;20202;-76
2021/12/03 01:44:22;;;;;;;20.07;8.43;;;-0.20;99.90;;;;;;5073279;28;20660;-76
2021/12/03 01:46:50;;;;;;;20.67;8.73;;;-0.20;99.90;;;;;;5072848;28;20670;-77
2021/12/03 01:49:17;;;;;;;19.10;8.67;;;-0.30;99.90;;;;;;5073203;28;20222;-77
2021/12/03 01:51:47;;;;;;;16.77;7.13;;;-0.20;99.90;;;;;;5073492;28;20202;-76
2021/12/03 01:54:14;;;;;;;20.13;8.00;;;-0.30;99.90;;;;;;5073199;28;20208;-76
2021/12/03 01:56:40;;;;;;;20.80;9.03;;;-0.10;99.90;;;;;;5071953;28;20206;-77
2021/12/03 01:59:10;;;;;;;21.13;8.83;;;-0.10;99.90;;;;;;5072801;28;20212;-76
2021/12/03 02:01:37;;;;;;;18.40;7.50;;;-0.10;99.90;;;;;;5073470;28;20686;-76
2021/12/03 02:04:06;;;;;;;18.37;7.50;;;-0.10;99.90;;;;;;5073175;28;20678;-77
2021/12/03 02:06:34;;;;;;;22.87;8.57;;;0.00;99.90;;;;;;5073090;28;20652;-76
2021/12/03 02:09:02;;;;;;;21.47;8.53;;;-0.10;99.90;;;;;;5072166;28;20222;-76
2021/12/03 02:11:29;;;;;;;19.23;7.40;;;-0.10;99.90;;;;;;5071344;28;20216;-77
2021/12/03 02:13:57;;;;;;;19.47;8.57;;;-0.10;99.90;;;;;;5071617;28;20213;-77
2021/12/03 02:16:24;;;;;;;16.47;6.90;;;-0.10;99.90;;;;;;5071175;28;20292;-77
2021/12/03 02:18:52;;;;;;;18.83;7.77;;;-0.10;99.90;;;;;;5072547;28;20202;-76
2021/12/03 02:21:21;;;;;;;22.10;9.33;;;-0.10;99.90;;;;;;5072216;28;20564;-77
2021/12/03 02:23:51;;;;;;;19.93;7.40;;;-0.10;99.90;;;;;;5072762;28;20675;-77
2021/12/03 02:26:18;;;;;;;20.63;8.03;;;-0.10;99.90;;;;;;5071927;28;20560;-76
2021/12/03 02:28:48;;;;;;;22.23;8.60;;;-0.10;99.90;;;;;;5072522;28;20214;-77
2021/12/03 02:31:17;;;;;;;20.63;8.27;;;-0.10;99.90;;;;;;5072878;28;20213;-76
2021/12/03 02:33:44;;;;;;;18.17;7.30;;;-0.10;99.90;;;;;;5042323;28;20221;-77
2021/12/03 02:36:11;;;;;;;18.63;7.43;;;-0.20;99.90;;;;;;5051690;28;20744;-77
2021/12/03 02:38:40;;;;;;;19.60;7.87;;;-0.10;99.90;;;;;;5065047;28;20583;-77
2021/12/03 02:41:07;;;;;;;20.77;8.67;;;-0.10;99.90;;;;;;5071509;28;20198;-77
2021/12/03 02:43:34;;;;;;;18.80;7.73;;;-0.10;99.90;;;;;;5072462;28;20213;-77
2021/12/03 02:46:01;;;;;;;19.57;8.17;;;0.00;99.90;;;;;;5072065;28;20644;-76
2021/12/03 02:48:30;;;;;;;17.93;7.87;;;0.00;99.90;;;;;;5072302;28;20237;-77
2021/12/03 02:50:58;;;;;;;18.20;8.17;;;0.10;99.90;;;;;;5071722;28;20634;-77
2021/12/03 02:53:25;;;;;;;21.47;8.87;;;0.00;99.90;;;;;;5072155;28;20352;-77
2021/12/03 02:55:53;;;;;;;20.63;8.50;;;0.00;99.90;;;;;;5071438;28;20202;-77
2021/12/03 02:58:21;;;;;;;22.43;8.80;;;0.00;99.90;;;;;;5072249;28;20674;-77
2021/12/03 03:00:50;;;;;;;19.80;8.67;;;0.00;99.90;;;;;;5071894;28;20206;-76
2021/12/03 03:03:17;;;;;;;18.53;7.67;;;-0.10;99.90;;;;;;5072165;28;20656;-77
2021/12/03 03:05:47;;;;;;;20.27;8.87;;;-0.10;99.90;;;;;;5071960;28;20206;-77
2021/12/03 03:08:14;;;;;;;19.83;8.97;;;-0.10;99.90;;;;;;5051994;28;20203;-76
2021/12/03 03:10:42;;;;;;;18.83;8.37;;;0.10;99.90;;;;;;5050667;28;20226;-76
2021/12/03 03:13:11;;;;;;;19.57;8.10;;;0.00;99.90;;;;;;5060288;28;20217;-76
2021/12/03 03:15:39;;;;;;;18.97;7.57;;;-0.10;99.90;;;;;;5071978;28;20210;-77
2021/12/03 03:18:15;;;;;;;19.23;8.07;;;-0.10;99.90;;;;;;5071702;28;20198;-77
2021/12/03 03:20:43;;;;;;;20.60;8.10;;;-0.10;99.90;;;;;;5071875;28;20213;-77
2021/12/03 03:23:12;;;;;;;20.63;8.07;;;-0.20;99.90;;;;;;5071969;28;20216;-76
2021/12/03 03:25:40;;;;;;;20.00;8.10;;;-0.10;99.90;;;;;;5079979;28;20664;-77
2021/12/03 03:28:07;;;;;;;23.40;9.17;;;0.00;99.90;;;;;;5073940;28;20213;-76
2021/12/03 03:30:37;;;;;;;20.50;9.40;;;0.10;99.90;;;;;;5076172;28;20226;-76
2021/12/03 03:33:04;;;;;;;17.20;6.40;;;0.00;99.90;;;;;;5076308;28;20213;-77
2021/12/03 03:35:31;;;;;;;21.17;8.93;;;0.00;99.90;;;;;;5074670;28;20569;-77
2021/12/03 03:37:58;;;;;;;22.50;10.30;;;0.10;99.90;;;;;;5058203;28;20218;-76
2021/12/03 03:40:25;;;;;;;22.53;10.43;;;0.10;99.90;;;;;;5054294;28;20202;-75
2021/12/03 03:42:52;;;;;;;19.20;8.93;;;0.20;99.90;;;;;;5055388;28;20278;-76
2021/12/03 03:45:22;;;;;;;22.63;9.93;;;0.30;99.90;;;;;;5065910;28;20214;-75
2021/12/03 03:47:51;;;;;;;23.70;11.57;;;0.30;99.90;;;;;;5075529;28;20202;-75
2021/12/03 03:50:20;;;;;;;24.67;9.80;;;0.30;99.90;;;;;;5074532;28;20313;-76
2021/12/03 03:52:48;;;;;;;21.37;9.67;;;0.30;99.90;;;;;;5075422;28;20559;-75
2021/12/03 03:55:17;;;;;;;22.60;9.23;;;0.30;99.90;;;;;;5061237;28;20209;-76
2021/12/03 03:57:44;;;;;;;22.07;9.60;;;0.30;99.90;;;;;;5054203;28;20203;-75
2021/12/03 04:00:14;;;;;;;23.40;9.07;;;0.10;99.90;;;;;;5058371;28;20199;-75
2021/12/03 04:02:41;;;;;;;22.13;9.93;;;0.20;99.90;;;;;;5054766;28;20211;-75
2021/12/03 04:05:10;;;;;;;23.87;10.67;;;0.20;99.90;;;;;;5054589;28;20210;-75
2021/12/03 04:07:38;;;;;;;25.37;9.77;;;0.10;99.90;;;;;;5070307;28;20206;-75
2021/12/03 04:10:07;;;;;;;24.87;10.70;;;0.10;99.90;;;;;;5074173;28;20575;-76
2021/12/03 04:12:35;;;;;;;23.60;10.03;;;0.10;99.90;;;;;;5068998;28;20586;-75
2021/12/03 04:15:03;;;;;;;24.37;10.20;;;0.10;99.90;;;;;;5055422;28;20294;-75
2021/12/03 04:17:30;;;;;;;24.30;10.03;;;0.20;99.90;;;;;;5065164;28;20217;-75
2021/12/03 04:19:57;;;;;;;26.40;10.83;;;0.20;99.90;;;;;;5074832;28;20202;-75
2021/12/03 04:22:25;;;;;;;20.03;9.73;;;0.20;99.90;;;;;;5074483;28;20293;-75
2021/12/03 04:24:54;;;;;;;22.20;10.03;;;0.30;99.90;;;;;;5075230;28;20626;-75
2021/12/03 04:27:21;;;;;;;25.33;11.83;;;0.30;99.90;;;;;;5073735;28;20210;-75
2021/12/03 04:29:48;;;;;;;24.33;11.27;;;0.30;99.90;;;;;;5074540;28;20222;-74
2021/12/03 04:32:17;;;;;;;24.97;11.50;;;0.40;99.90;;;;;;5068071;28;20206;-75
2021/12/03 04:34:44;;;;;;;26.37;14.23;;;0.40;99.90;;;;;;5071993;28;20206;-75
2021/12/03 04:37:12;;;;;;;24.23;11.03;;;0.50;99.90;;;;;;5075162;28;20244;-77
2021/12/03 04:39:41;;;;;;;23.97;11.77;;;0.50;99.90;;;;;;5073191;28;20213;-75
2021/12/03 04:42:08;;;;;;;26.80;11.83;;;0.50;99.90;;;;;;5074037;28;20206;-75
2021/12/03 04:44:35;;;;;;;25.33;11.73;;;0.40;99.90;;;;;;5075025;28;20640;-75
2021/12/03 04:47:03;;;;;;;27.23;12.40;;;0.50;99.90;;;;;;5074022;28;20220;-74
2021/12/03 04:49:30;;;;;;;26.83;11.60;;;0.40;99.90;;;;;;5074131;28;20210;-75
2021/12/03 04:51:57;;;;;;;23.73;11.20;;;0.40;99.90;;;;;;5073763;28;20213;-75
2021/12/03 04:54:24;;;;;;;24.60;11.20;;;0.50;99.90;;;;;;5068530;28;20194;-75
2021/12/03 04:56:52;;;;;;;27.27;11.90;;;0.50;99.90;;;;;;5061563;28;20203;-75
2021/12/03 04:59:19;;;;;;;25.57;11.93;;;0.50;99.90;;;;;;5072680;28;20203;-75
2021/12/03 05:01:46;;;;;;;26.80;10.70;;;0.50;99.90;;;;;;5071052;28;20665;-75
2021/12/03 05:04:13;;;;;;;23.90;11.83;;;0.50;99.90;;;;;;5072589;28;20203;-75
2021/12/03 05:06:54;;;;;;;23.07;9.23;;;0.40;99.90;;;;;;5072395;28;20216;-75
2021/12/03 05:09:21;;;;;;;25.63;11.13;;;0.60;99.90;;;;;;5067628;28;20261;-75
2021/12/03 05:11:48;;;;;;;25.73;10.90;;;0.40;99.90;;;;;;5065907;28;20222;-75
2021/12/03 05:14:16;;;;;;;16.83;8.00;;;0.40;99.90;;;;;;5073110;28;20266;-75
2021/12/03 05:16:45;;;;;;;24.47;10.40;;;0.50;99.90;;;;;;5071927;28;20211;-75
2021/12/03 05:19:12;;;;;;;27.77;11.37;;;0.50;99.90;;;;;;5072673;28;20289;-74
2021/12/03 05:21:40;;;;;;;26.17;12.13;;;0.40;99.90;;;;;;5073499;28;21262;-75
2021/12/03 05:24:07;;;;;;;25.93;12.97;;;0.30;99.90;;;;;;5071456;28;20553;-75
2021/12/03 05:26:35;;;;;;;26.97;12.67;;;0.30;99.90;;;;;;5074527;28;20197;-75
2021/12/03 05:29:02;;;;;;;27.30;11.77;;;0.30;99.90;;;;;;5068290;28;20198;-75
2021/12/03 05:31:31;;;;;;;28.90;13.47;;;0.40;99.90;;;;;;5071189;28;20627;-75
2021/12/03 05:33:58;;;;;;;27.50;12.63;;;0.50;99.90;;;;;;5068038;28;20206;-77
2021/12/03 05:36:25;;;;;;;26.87;13.50;;;0.50;99.90;;;;;;5069161;28;20195;-75
2021/12/03 05:38:52;;;;;;;29.30;13.00;;;0.50;99.90;;;;;;5077637;28;20210;-78
2021/12/03 05:41:19;;;;;;;29.07;12.23;;;0.60;99.90;;;;;;5069840;28;20202;-77
2021/12/03 05:43:46;;;;;;;27.43;12.17;;;0.60;99.90;;;;;;5072055;28;20209;-77
2021/12/03 05:46:13;;;;;;;32.90;13.37;;;0.70;99.90;;;;;;5071793;28;20199;-75
2021/12/03 05:48:41;;;;;;;26.23;13.30;;;0.70;99.90;;;;;;5071696;28;20644;-75
2021/12/03 05:51:10;;;;;;;29.77;14.57;;;0.70;99.90;;;;;;5072660;28;20222;-75
2021/12/03 05:53:37;;;;;;;30.40;14.17;;;0.70;99.90;;;;;;5072969;28;20213;-75
2021/12/03 05:56:05;;;;;;;28.10;13.80;;;0.80;99.90;;;;;;5069651;28;20198;-75
2021/12/03 05:58:31;;;;;;;32.93;15.00;;;0.70;99.90;;;;;;5071345;28;20202;-76
2021/12/03 06:00:59;;;;;;;26.83;12.97;;;0.70;99.90;;;;;;5070045;28;20205;-74
2021/12/03 06:03:25;;;;;;;34.20;15.10;;;0.80;99.90;;;;;;5071148;28;20194;-77
2021/12/03 06:05:54;;;;;;;34.97;15.33;;;0.80;99.90;;;;;;5069257;28;20199;-75
2021/12/03 06:08:21;;;;;;;33.73;15.47;;;0.80;99.90;;;;;;5071442;28;20208;-75
2021/12/03 06:10:47;;;;;;;34.80;14.43;;;0.90;99.90;;;;;;5071123;28;20309;-75
2021/12/03 06:13:14;;;;;;;28.43;14.20;;;0.90;99.90;;;;;;5068826;28;20203;-75
2021/12/03 06:15:41;;;;;;;30.87;14.43;;;0.90;99.90;;;;;;5070681;28;20209;-75
2021/12/03 06:18:08;;;;;;;34.83;13.73;;;1.00;99.90;;;;;;5071392;28;20214;-75
2021/12/03 06:20:35;;;;;;;33.30;14.80;;;1.00;99.90;;;;;;5070748;28;20210;-75
2021/12/03 06:23:04;;;;;;;34.43;15.63;;;1.10;99.90;;;;;;5067875;28;20515;-75
2021/12/03 06:25:31;;;;;;;34.47;14.40;;;1.10;99.90;;;;;;5071966;28;20202;-75
2021/12/03 06:27:58;;;;;;;34.17;14.03;;;1.10;99.90;;;;;;5069540;28;20671;-75
2021/12/03 06:30:26;;;;;;;32.27;13.93;;;1.10;99.90;;;;;;5070085;28;20221;-75
2021/12/03 06:32:54;;;;;;;32.23;13.97;;;1.10;99.90;;;;;;5071716;28;20198;-75
2021/12/03 06:35:22;;;;;;;31.50;13.97;;;1.10;99.90;;;;;;5078957;28;20660;-75
2021/12/03 06:37:49;;;;;;;30.20;13.97;;;1.10;99.90;;;;;;5071966;28;20230;-74
2021/12/03 06:40:20;;;;;;;26.63;12.07;;;1.10;99.90;;;;;;5074115;28;20210;-75
2021/12/03 06:42:47;;;;;;;31.80;12.47;;;1.10;99.90;;;;;;5076749;28;20197;-75
2021/12/03 06:45:15;;;;;;;28.37;12.53;;;1.10;99.90;;;;;;5072463;28;20210;-75
2021/12/03 06:47:42;;;;;;;29.07;11.93;;;1.10;99.90;;;;;;5075437;28;20231;-75
2021/12/03 06:50:13;;;;;;;29.97;13.27;;;1.10;99.90;;;;;;5074250;28;20246;-74
2021/12/03 06:52:41;;;;;;;29.47;12.87;;;1.00;99.90;;;;;;5074832;28;20240;-75
2021/12/03 06:55:13;;;;;;;28.23;12.33;;;1.10;99.90;;;;;;5073620;28;20647;-75
2021/12/03 06:57:43;;;;;;;25.77;13.17;;;1.10;99.90;;;;;;5083754;28;20292;-77
2021/12/03 07:00:13;;;;;;;30.03;14.77;;;1.10;99.90;;;;;;5072714;28;20283;-77
2021/12/03 07:02:39;;;;;;;27.97;13.20;;;1.00;99.90;;;;;;5069914;28;20210;-75
2021/12/03 07:05:08;;;;;;;26.90;12.53;;;1.00;99.90;;;;;;5067241;28;20198;-75
2021/12/03 07:07:35;;;;;;;27.97;12.47;;;1.10;99.90;;;;;;5083057;28;20202;-75
2021/12/03 07:10:03;;;;;;;27.97;13.80;;;1.10;99.90;;;;;;5066714;28;20198;-76
2021/12/03 07:12:31;;;;;;;26.03;11.47;;;1.10;99.90;;;;;;5069033;28;20218;-76
2021/12/03 07:15:00;;;;;;;28.10;13.17;;;1.20;99.90;;;;;;5066280;28;20205;-76
2021/12/03 07:17:30;;;;;;;32.30;13.20;;;1.30;99.90;;;;;;5067513;28;20446;-76
2021/12/03 07:19:58;;;;;;;30.00;14.07;;;1.30;99.90;;;;;;5063685;28;20719;-76
2021/12/03 07:22:25;;;;;;;27.17;11.77;;;1.40;99.90;;;;;;5074007;28;20252;-76
2021/12/03 07:24:53;;;;;;;25.73;11.97;;;1.40;99.90;;;;;;5065324;28;20199;-76
2021/12/03 07:27:20;;;;;;;30.00;12.30;;;1.50;99.90;;;;;;5068517;28;20201;-76
2021/12/03 07:29:48;;;;;;;27.67;12.33;;;1.60;99.90;;;;;;5068634;28;20205;-77
2021/12/03 07:32:18;;;;;;;28.43;14.17;;;1.60;99.90;;;;;;5071043;28;20292;-77
2021/12/03 07:34:45;;;;;;;23.37;11.27;;;1.70;99.90;;;;;;5067814;28;20206;-76
2021/12/03 07:37:13;;;;;;;26.10;12.60;;;1.70;99.90;;;;;;5076090;28;20232;-77
2021/12/03 07:39:40;;;;;;;23.83;11.67;;;1.70;99.90;;;;;;5069286;28;20624;-76
2021/12/03 07:42:08;;;;;;;23.80;11.33;;;1.70;99.90;;;;;;5069763;28;20260;-77
2021/12/03 07:44:36;;;;;;;22.93;10.77;;;1.70;99.90;;;;;;5069222;28;20202;-77
2021/12/03 07:47:03;;;;;;;25.83;11.77;;;1.70;99.90;;;;;;5071652;28;20206;-77
2021/12/03 07:49:32;;;;;;;22.77;10.17;;;1.70;99.90;;;;;;5072873;28;20206;-76
2021/12/03 07:51:59;;;;;;;22.03;11.30;;;1.70;99.90;;;;;;5070180;28;20222;-77
2021/12/03 07:54:26;;;;;;;21.30;10.27;;;1.80;99.90;;;;;;5069342;28;20200;-77
2021/12/03 07:56:53;;;;;;;24.37;10.77;;;1.80;99.90;;;;;;5074590;28;20324;-77
2021/12/03 07:59:21;;;;;;;21.67;10.30;;;1.80;99.90;;;;;;5070137;28;20235;-77
2021/12/03 08:01:49;;;;;;;21.87;9.27;;;1.80;99.90;;;;;;5070183;28;20597;-77
2021/12/03 08:04:16;;;;;;;25.80;11.07;;;1.80;99.90;;;;;;5072166;28;20199;-77
2021/12/03 08:06:48;;;;;;;22.20;10.70;;;1.90;99.90;;;;;;5067571;28;20198;-77
2021/12/03 08:09:15;;;;;;;21.67;10.33;;;1.90;99.90;;;;;;5072223;28;20202;-77
2021/12/03 08:11:42;;;;;;;20.47;9.97;;;1.90;99.90;;;;;;5069080;28;20229;-77
2021/12/03 08:14:09;;;;;;;23.10;9.50;;;1.90;99.90;;;;;;5069768;28;20638;-77
2021/12/03 08:16:37;;;;;;;20.17;8.97;;;1.90;99.90;;;;;;5072926;28;20202;-77
2021/12/03 08:19:04;;;;;;;19.07;8.47;;;1.90;99.90;;;;;;5077330;28;20210;-77
2021/12/03 08:21:32;;;;;;;21.47;10.70;;;1.80;99.90;;;;;;5073089;28;20209;-77
2021/12/03 08:24:01;;;;;;;19.60;8.83;;;1.90;99.90;;;;;;5073377;28;20205;-77
2021/12/03 08:26:29;;;;;;;19.90;8.47;;;1.90;99.90;;;;;;5074866;28;20202;-77
2021/12/03 08:28:56;;;;;;;21.30;8.47;;;1.90;99.90;;;;;;5072041;28;20210;-77
2021/12/03 08:31:23;;;;;;;15.00;7.47;;;2.00;99.90;;;;;;5072403;28;20261;-76
2021/12/03 08:33:51;;;;;;;19.07;8.30;;;2.00;99.90;;;;;;5077307;28;20206;-77
2021/12/03 08:36:19;;;;;;;24.00;8.70;;;2.00;99.90;;;;;;5075732;28;20648;-77
2021/12/03 08:38:46;;;;;;;20.70;8.43;;;2.00;99.90;;;;;;5068781;28;20562;-77
2021/12/03 08:41:17;;;;;;;22.10;9.10;;;2.10;99.90;;;;;;5083283;28;20197;-77
2021/12/03 08:43:44;;;;;;;20.00;9.00;;;2.10;99.90;;;;;;5075399;28;20293;-77
2021/12/03 08:46:15;;;;;;;20.57;9.03;;;2.10;99.90;;;;;;5071278;28;20248;-77
2021/12/03 08:48:45;;;;;;;19.47;9.13;;;2.20;99.90;;;;;;5077788;28;20573;-76
2021/12/03 08:51:25;;;;;;;24.17;9.80;;;2.20;99.90;;;;;;5072776;28;20700;-76
2021/12/03 08:56:39;;;;;;;21.47;10.50;;;2.20;99.90;;;;;;5075014;28;20217;-76
2021/12/03 08:59:06;;;;;;;22.63;9.27;;;2.20;99.90;;;;;;5075773;28;20209;-77
2021/12/03 09:01:33;;;;;;;24.83;10.00;;;2.20;99.90;;;;;;5072211;28;20206;-76
2021/12/03 09:04:01;;;;;;;23.17;9.70;;;2.20;99.90;;;;;;5074666;28;20202;-76
2021/12/03 09:06:28;;;;;;;20.97;9.50;;;2.20;99.90;;;;;;5073135;28;20206;-76
2021/12/03 09:08:55;;;;;;;20.03;9.17;;;2.30;99.90;;;;;;5080680;28;20203;-76
2021/12/03 09:11:24;;;;;;;23.47;9.90;;;2.30;99.90;;;;;;5071449;28;20230;-76
2021/12/03 09:13:53;;;;;;;23.10;10.33;;;2.40;99.90;;;;;;5073410;28;20206;-76
2021/12/03 09:16:21;;;;;;;24.23;10.23;;;2.40;99.90;;;;;;5077438;28;20202;-75
2021/12/03 09:18:50;;;;;;;19.03;8.90;;;2.30;99.90;;;;;;5068177;28;20722;-75
2021/12/03 09:21:20;;;;;;;25.27;11.47;;;2.30;99.90;;;;;;5076025;28;20643;-75
2021/12/03 09:24:03;;;;;;;20.27;9.27;;;2.30;99.90;;;;;;5075546;28;20640;-75
2021/12/03 09:26:31;;;;;;;21.03;9.27;;;2.30;99.90;;;;;;5070197;28;20206;-75
2021/12/03 09:29:03;;;;;;;24.70;10.03;;;2.40;99.90;;;;;;5070597;28;20214;-75
2021/12/03 09:31:33;;;;;;;22.60;10.00;;;2.40;99.90;;;;;;5074199;28;20234;-75
2021/12/03 09:34:00;;;;;;;21.17;9.93;;;2.40;99.90;;;;;;5074653;28;20206;-75
2021/12/03 09:36:28;;;;;;;20.47;9.63;;;2.50;99.90;;;;;;5070943;28;20540;-75
2021/12/03 09:38:55;;;;;;;22.60;10.27;;;2.50;99.90;;;;;;5071667;28;20199;-75
2021/12/03 09:41:22;;;;;;;19.80;8.53;;;2.60;99.90;;;;;;5071192;28;20664;-75
2021/12/03 09:43:52;;;;;;;21.87;9.53;;;2.70;99.90;;;;;;5070869;28;20198;-75
2021/12/03 09:46:23;;;;;;;19.73;8.77;;;2.70;99.90;;;;;;5076513;28;20213;-75
2021/12/03 09:51:47;;;;;;;19.83;8.60;;;2.90;99.90;;;;;;5065216;28;21642;-76
2021/12/03 09:54:27;;;;;;;19.47;9.13;;;2.90;99.90;;;;;;5076293;28;20204;-76
2021/12/03 09:56:59;;;;;;;23.47;9.53;;;2.90;99.90;;;;;;5068678;28;20260;-76
2021/12/03 10:02:17;;;;;;;18.97;8.57;;;3.00;99.90;;;;;;5069287;28;20194;-76
2021/12/03 10:05:11;;;;;;;18.97;9.17;;;3.00;99.90;;;;;;5076449;28;20217;-77
2021/12/03 10:13:36;;;;;;;19.30;7.90;;;3.20;99.90;;;;;;5020961;28;20204;-77
2021/12/03 10:16:13;;;;;;;21.47;8.83;;;3.20;99.90;;;;;;5028344;28;20281;-77
2021/12/03 10:18:46;;;;;;;17.73;7.53;;;3.30;99.90;;;;;;5048174;28;20285;-78
2021/12/03 10:21:23;;;;;;;20.37;8.90;;;3.40;99.90;;;;;;5067378;28;20210;-78
2021/12/03 10:29:45;;;;;;;17.67;8.43;;;3.40;99.90;;;;;;5056405;28;20274;-78
2021/12/03 10:32:41;;;;;;;20.03;7.47;;;3.40;99.90;;;;;;5071155;28;20260;-78
2021/12/03 10:49:18;;;;;;;15.10;7.57;;;3.60;99.90;;;;;;5023173;28;20229;-67
2021/12/03 10:52:00;;;;;;;19.57;8.87;;;3.50;99.90;;;;;;5050953;28;20222;-67
2021/12/03 11:05:59;;;;;;;15.73;7.37;;;3.50;99.90;;;;;;5020305;28;20222;-67
2021/12/03 11:26:13;;;;;;;17.03;7.83;;;3.50;99.90;;;;;;5049271;28;20603;-67
2021/12/03 11:39:54;;;;;;;19.03;8.27;;;3.50;99.90;;;;;;5069822;28;20194;-68
2021/12/03 11:46:24;;;;;;;19.10;8.60;;;3.50;99.90;;;;;;5068432;28;20272;-67
2021/12/03 13:15:06;;;;;;;12.27;5.73;;;3.80;99.90;;;;;;5073203;28;20705;-68
2021/12/03 13:18:13;;;;;;;12.90;5.40;;;3.80;99.90;;;;;;5071989;28;20206;-67
2021/12/03 14:37:13;;;;;;;5.77;2.80;;;3.80;99.90;;;;;;5054301;28;20209;-78
2021/12/03 14:39:49;;;;;;;9.33;3.07;;;3.80;99.90;;;;;;5076446;28;20201;-78
2021/12/03 14:45:08;;;;;;;8.10;3.07;;;3.80;99.90;;;;;;5067483;28;20679;-78
2021/12/03 14:47:52;;;;;;;7.93;3.17;;;3.80;99.90;;;;;;5054952;28;20205;-78
2021/12/03 14:50:42;;;;;;;6.37;3.00;;;3.80;99.90;;;;;;5060944;28;20206;-78
2021/12/03 14:53:34;;;;;;;9.37;2.83;;;3.80;99.90;;;;;;5071740;28;20227;-78
2021/12/03 14:56:04;;;;;;;11.03;3.00;;;3.80;99.90;;;;;;5070800;28;20194;-77
2021/12/03 14:58:38;;;;;;;5.30;2.77;;;3.70;99.90;;;;;;5074155;28;20293;-78
2021/12/03 15:01:13;;;;;;;7.83;3.57;;;3.70;99.90;;;;;;5078600;28;20718;-78
2021/12/03 15:04:00;;;;;;;7.13;2.87;;;3.70;99.90;;;;;;5083223;28;20201;-78
2021/12/03 15:06:32;;;;;;;9.37;3.13;;;3.70;99.90;;;;;;5074649;28;20233;-78
2021/12/03 15:09:04;;;;;;;4.57;2.60;;;3.80;99.90;;;;;;5073275;28;20202;-77
2021/12/03 15:22:50;;;;;;;7.47;2.97;;;3.70;99.90;;;;;;5077894;28;20197;-78
2021/12/03 15:25:25;;;;;;;9.57;3.30;;;3.60;99.90;;;;;;5072831;28;20198;-78
2021/12/03 15:30:58;;;;;;;7.67;3.13;;;3.70;99.90;;;;;;5078172;28;20208;-78
2021/12/03 15:33:34;;;;;;;13.80;3.73;;;3.60;99.90;;;;;;5061681;28;20214;-78
2021/12/03 15:36:04;;;;;;;4.83;2.80;;;3.70;99.90;;;;;;5069624;28;20205;-78
2021/12/03 15:41:40;;;;;;;8.07;2.73;;;3.60;99.90;;;;;;5072938;28;20202;-77
2021/12/03 16:08:48;;;;;;;8.07;2.57;;;3.60;99.90;;;;;;5074609;28;20284;-78
2021/12/03 16:11:28;;;;;;;5.20;2.63;;;3.60;99.90;;;;;;5070558;28;20199;-78
2021/12/03 16:14:10;;;;;;;6.07;2.47;;;3.60;99.90;;;;;;5074145;28;20228;-78
2021/12/03 16:17:02;;;;;;;5.63;2.40;;;3.60;99.90;;;;;;5073620;28;20758;-78
2021/12/03 16:22:29;;;;;;;3.97;2.83;;;3.60;99.90;;;;;;5072449;28;20194;-77
2021/12/03 16:44:32;;;;;;;5.27;2.33;;;3.80;99.90;;;;;;5079334;28;20283;-78
2021/12/03 16:47:04;;;;;;;3.60;2.43;;;3.80;99.90;;;;;;5077207;28;20221;-79
2021/12/03 16:52:19;;;;;;;2.60;1.93;;;3.70;99.90;;;;;;5076626;28;20221;-78
2021/12/03 16:54:50;;;;;;;4.93;2.43;;;3.70;99.90;;;;;;5075303;28;20699;-78
2021/12/03 16:57:18;;;;;;;5.50;2.17;;;3.70;99.90;;;;;;5074279;28;20213;-78
2021/12/03 16:59:47;;;;;;;7.73;3.40;;;3.70;99.90;;;;;;5076788;28;20194;-78
2021/12/03 17:02:20;;;;;;;3.77;2.20;;;3.80;99.90;;;;;;5071657;28;20645;-78
2021/12/03 17:10:51;;;;;;;6.60;2.77;;;3.70;99.90;;;;;;5116799;27;20689;-78
2021/12/03 17:46:57;;;;;;;5.13;2.70;;;3.60;99.90;;;;;;5119996;28;20247;-74
2021/12/03 17:49:33;;;;;;;8.53;3.43;;;3.60;99.90;;;;;;5115488;27;20331;-75
2021/12/03 17:52:19;;;;;;;5.30;2.73;;;3.60;99.90;;;;;;5116870;28;20283;-74
2021/12/03 17:57:42;;;;;;;5.73;2.53;;;3.50;99.90;;;;;;5111031;28;20512;-75
2021/12/03 18:00:16;;;;;;;6.57;2.87;;;3.60;99.90;;;;;;5121504;27;20200;-75
2021/12/03 18:02:45;;;;;;;6.73;3.27;;;3.60;99.90;;;;;;5118531;28;20288;-75
2021/12/03 18:05:30;;;;;;;5.50;2.90;;;3.70;99.90;;;;;;5120166;28;20220;-75
2021/12/03 18:08:05;;;;;;;7.00;3.17;;;3.70;99.90;;;;;;5121213;27;20639;-75
2021/12/03 18:11:02;;;;;;;6.13;2.90;;;3.70;99.90;;;;;;5115430;28;20562;-75
2021/12/03 18:13:53;;;;;;;4.77;2.87;;;3.70;99.90;;;;;;5111611;28;20399;-75
2021/12/03 18:44:09;;;;;;;5.37;3.07;;;3.80;99.90;;;;;;5061821;28;20320;-75
2021/12/03 18:52:32;;;;;;;8.47;3.13;;;3.80;99.90;;;;;;5101682;28;20213;-75
2021/12/03 18:55:02;;;;;;;3.90;2.97;;;3.80;99.90;;;;;;5110401;28;20197;-75
2021/12/03 18:57:30;;;;;;;6.37;3.00;;;3.80;99.90;;;;;;5104282;28;20676;-75
2021/12/03 19:00:00;;;;;;;7.67;3.20;;;3.80;99.90;;;;;;5109251;28;20196;-75
2021/12/03 19:02:29;;;;;;;5.67;3.30;;;3.70;99.90;;;;;;5101314;28;20201;-75
2021/12/03 19:05:00;;;;;;;5.50;3.47;;;3.70;99.90;;;;;;5106562;28;20651;-75
2021/12/03 19:07:30;;;;;;;6.00;3.30;;;3.70;99.90;;;;;;5104633;28;20305;-75
2021/12/03 19:10:01;;;;;;;4.97;3.20;;;3.60;99.90;;;;;;5104635;28;20201;-75
2021/12/03 19:12:31;;;;;;;7.93;3.20;;;3.60;99.90;;;;;;5110994;28;20193;-75
2021/12/03 19:15:00;;;;;;;6.23;3.77;;;3.70;99.90;;;;;;5100179;28;20247;-75
2021/12/03 19:17:35;;;;;;;5.47;3.10;;;3.80;99.90;;;;;;5102865;28;20285;-74
2021/12/03 19:20:03;;;;;;;5.03;3.17;;;3.70;99.90;;;;;;5100215;28;20197;-75
2021/12/03 19:22:31;;;;;;;6.43;4.00;;;3.70;99.90;;;;;;5108105;27;20205;-75